sensor_id;sensor_type;location;lat;lon;timestamp;pressure;altitude;pressure_sealevel;temperature;humidity
9474;BME280;8865;47.636;7.692;2023-07-31T00:01:49;98482.97;;;15.60;100.00
9474;BME280;8865;47.636;7.692;2023-07-31T00:04:15;98479.19;;;15.54;100.00
9474;BME280;8865;47.636;7.692;2023-07-31T00:06:41;98470.41;;;15.54;100.00
9474;BME280;8865;47.636;7.692;2023-07-31T00:09:07;98471.44;;;15.53;100.00
9474;BME280;8865;47.636;7.692;2023-07-31T00:11:33;98466.31;;;15.51;100.00
9474;BME280;8865;47.636;7.692;2023-07-31T00:13:59;98461.34;;;15.48;100.00
9474;BME280;8865;47.636;7.692;2023-07-31T00:16:26;98465.13;;;15.46;100.00
9474;BME280;8865;47.636;7.692;2023-07-31T00:18:52;98474.16;;;15.43;100.00
9474;BME280;8865;47.636;7.692;2023-07-31T00:21:18;98477.97;;;15.41;100.00
9474;BME280;8865;47.636;7.692;2023-07-31T00:23:43;98485.88;;;15.41;100.00
9474;BME280;8865;47.636;7.692;2023-07-31T00:26:09;98483.25;;;15.41;100.00
9474;BME280;8865;47.636;7.692;2023-07-31T00:28:35;98480.06;;;15.37;100.00
9474;BME280;8865;47.636;7.692;2023-07-31T00:31:01;98483.72;;;15.36;100.00
9474;BME280;8865;47.636;7.692;2023-07-31T00:33:31;98484.69;;;15.35;100.00
9474;BME280;8865;47.636;7.692;2023-07-31T00:35:57;98485.16;;;15.30;100.00
9474;BME280;8865;47.636;7.692;2023-07-31T00:38:23;98482.84;;;15.27;100.00
9474;BME280;8865;47.636;7.692;2023-07-31T00:40:49;98477.72;;;15.26;100.00
9474;BME280;8865;47.636;7.692;2023-07-31T00:43:15;98474.88;;;15.19;100.00
9474;BME280;8865;47.636;7.692;2023-07-31T00:45:41;98473.38;;;15.16;100.00
9474;BME280;8865;47.636;7.692;2023-07-31T00:48:07;98477.84;;;15.16;100.00
9474;BME280;8865;47.636;7.692;2023-07-31T00:50:33;98478.16;;;15.13;100.00
9474;BME280;8865;47.636;7.692;2023-07-31T00:53:00;98469.38;;;15.12;100.00
9474;BME280;8865;47.636;7.692;2023-07-31T00:55:26;98464.97;;;15.13;100.00
9474;BME280;8865;47.636;7.692;2023-07-31T00:57:52;98466.91;;;15.11;100.00
9474;BME280;8865;47.636;7.692;2023-07-31T01:00:21;98467.22;;;15.08;100.00
9474;BME280;8865;47.636;7.692;2023-07-31T01:02:50;98473.50;;;15.07;100.00
9474;BME280;8865;47.636;7.692;2023-07-31T01:05:20;98465.91;;;15.04;100.00
9474;BME280;8865;47.636;7.692;2023-07-31T01:07:57;98467.84;;;15.02;100.00
9474;BME280;8865;47.636;7.692;2023-07-31T01:10:41;98467.50;;;14.96;100.00
9474;BME280;8865;47.636;7.692;2023-07-31T01:13:11;98465.16;;;14.93;100.00
9474;BME280;8865;47.636;7.692;2023-07-31T01:15:38;98465.47;;;14.90;100.00
9474;BME280;8865;47.636;7.692;2023-07-31T01:18:04;98453.72;;;14.85;100.00
9474;BME280;8865;47.636;7.692;2023-07-31T01:20:31;98452.25;;;14.82;100.00
9474;BME280;8865;47.636;7.692;2023-07-31T01:23:36;98447.94;;;14.81;100.00
9474;BME280;8865;47.636;7.692;2023-07-31T01:26:13;98455.69;;;14.82;100.00
9474;BME280;8865;47.636;7.692;2023-07-31T01:28:50;98453.06;;;14.82;100.00
9474;BME280;8865;47.636;7.692;2023-07-31T01:31:22;98454.03;;;14.81;100.00
9474;BME280;8865;47.636;7.692;2023-07-31T01:33:50;98450.56;;;14.81;100.00
9474;BME280;8865;47.636;7.692;2023-07-31T01:36:18;98448.09;;;14.79;100.00
9474;BME280;8865;47.636;7.692;2023-07-31T01:38:44;98446.59;;;14.77;100.00
9474;BME280;8865;47.636;7.692;2023-07-31T01:41:10;98436.19;;;14.75;100.00
9474;BME280;8865;47.636;7.692;2023-07-31T01:43:37;98446.75;;;14.75;100.00
9474;BME280;8865;47.636;7.692;2023-07-31T01:46:03;98434.69;;;14.73;100.00
9474;BME280;8865;47.636;7.692;2023-07-31T01:48:29;98430.41;;;14.72;100.00
9474;BME280;8865;47.636;7.692;2023-07-31T01:50:55;98426.41;;;14.68;100.00
9474;BME280;8865;47.636;7.692;2023-07-31T01:53:21;98425.75;;;14.66;100.00
9474;BME280;8865;47.636;7.692;2023-07-31T01:55:47;98429.38;;;14.64;100.00
9474;BME280;8865;47.636;7.692;2023-07-31T01:58:13;98426.22;;;14.61;100.00
9474;BME280;8865;47.636;7.692;2023-07-31T02:00:39;98426.22;;;14.61;100.00
9474;BME280;8865;47.636;7.692;2023-07-31T02:03:05;98421.22;;;14.58;100.00
9474;BME280;8865;47.636;7.692;2023-07-31T02:05:31;98418.19;;;14.53;100.00
9474;BME280;8865;47.636;7.692;2023-07-31T02:07:56;98421.69;;;14.53;100.00
9474;BME280;8865;47.636;7.692;2023-07-31T02:10:23;98420.84;;;14.53;100.00
9474;BME280;8865;47.636;7.692;2023-07-31T02:12:49;98421.00;;;14.51;100.00
9474;BME280;8865;47.636;7.692;2023-07-31T02:15:15;98412.25;;;14.51;100.00
9474;BME280;8865;47.636;7.692;2023-07-31T02:17:41;98416.88;;;14.49;100.00
9474;BME280;8865;47.636;7.692;2023-07-31T02:20:07;98413.69;;;14.45;100.00
9474;BME280;8865;47.636;7.692;2023-07-31T02:22:33;98409.44;;;14.44;100.00
9474;BME280;8865;47.636;7.692;2023-07-31T02:25:00;98400.00;;;14.41;100.00
9474;BME280;8865;47.636;7.692;2023-07-31T02:27:26;98403.47;;;14.42;100.00
9474;BME280;8865;47.636;7.692;2023-07-31T02:29:53;98410.34;;;14.35;100.00
9474;BME280;8865;47.636;7.692;2023-07-31T02:32:20;98400.13;;;14.32;100.00
9474;BME280;8865;47.636;7.692;2023-07-31T02:34:46;98394.84;;;14.32;100.00
9474;BME280;8865;47.636;7.692;2023-07-31T02:37:12;98400.41;;;14.28;100.00
9474;BME280;8865;47.636;7.692;2023-07-31T02:39:38;98392.81;;;14.25;100.00
9474;BME280;8865;47.636;7.692;2023-07-31T02:42:04;98394.25;;;14.20;100.00
9474;BME280;8865;47.636;7.692;2023-07-31T02:44:30;98394.25;;;14.20;100.00
9474;BME280;8865;47.636;7.692;2023-07-31T02:46:56;98401.19;;;14.21;100.00
9474;BME280;8865;47.636;7.692;2023-07-31T02:49:22;98395.75;;;14.22;100.00
9474;BME280;8865;47.636;7.692;2023-07-31T02:51:48;98400.47;;;14.19;100.00
9474;BME280;8865;47.636;7.692;2023-07-31T02:54:14;98398.69;;;14.19;100.00
9474;BME280;8865;47.636;7.692;2023-07-31T02:56:40;98404.78;;;14.20;100.00
9474;BME280;8865;47.636;7.692;2023-07-31T02:59:06;98400.63;;;14.17;100.00
9474;BME280;8865;47.636;7.692;2023-07-31T03:01:32;98403.41;;;14.16;100.00
9474;BME280;8865;47.636;7.692;2023-07-31T03:03:58;98405.91;;;14.17;100.00
9474;BME280;8865;47.636;7.692;2023-07-31T03:06:24;98413.81;;;14.17;100.00
9474;BME280;8865;47.636;7.692;2023-07-31T03:08:50;98413.81;;;14.17;100.00
9474;BME280;8865;47.636;7.692;2023-07-31T03:11:16;98419.38;;;14.14;100.00
9474;BME280;8865;47.636;7.692;2023-07-31T03:13:42;98423.81;;;14.14;100.00
9474;BME280;8865;47.636;7.692;2023-07-31T03:16:08;98420.88;;;14.17;100.00
9474;BME280;8865;47.636;7.692;2023-07-31T03:18:34;98423.22;;;14.20;100.00
9474;BME280;8865;47.636;7.692;2023-07-31T03:21:00;98424.72;;;14.22;100.00
9474;BME280;8865;47.636;7.692;2023-07-31T03:23:26;98428.34;;;14.21;100.00
9474;BME280;8865;47.636;7.692;2023-07-31T03:25:59;98419.31;;;14.24;100.00
9474;BME280;8865;47.636;7.692;2023-07-31T03:28:26;98420.13;;;14.24;100.00
9474;BME280;8865;47.636;7.692;2023-07-31T03:30:52;98423.72;;;14.23;100.00
9474;BME280;8865;47.636;7.692;2023-07-31T03:33:19;98428.50;;;14.20;100.00
9474;BME280;8865;47.636;7.692;2023-07-31T03:35:45;98420.44;;;14.21;100.00
9474;BME280;8865;47.636;7.692;2023-07-31T03:38:11;98419.63;;;14.21;100.00
9474;BME280;8865;47.636;7.692;2023-07-31T03:40:37;98420.75;;;14.18;100.00
9474;BME280;8865;47.636;7.692;2023-07-31T03:43:04;98416.44;;;14.17;100.00
9474;BME280;8865;47.636;7.692;2023-07-31T03:45:30;98412.84;;;14.18;100.00
9474;BME280;8865;47.636;7.692;2023-07-31T03:47:56;98417.94;;;14.20;100.00
9474;BME280;8865;47.636;7.692;2023-07-31T03:50:23;98413.50;;;14.20;100.00
9474;BME280;8865;47.636;7.692;2023-07-31T03:52:50;98420.75;;;14.18;100.00
9474;BME280;8865;47.636;7.692;2023-07-31T03:55:16;98421.56;;;14.19;100.00
9474;BME280;8865;47.636;7.692;2023-07-31T03:57:43;98411.00;;;14.19;100.00
9474;BME280;8865;47.636;7.692;2023-07-31T04:00:10;98411.31;;;14.16;100.00
9474;BME280;8865;47.636;7.692;2023-07-31T04:02:36;98411.31;;;14.16;100.00
9474;BME280;8865;47.636;7.692;2023-07-31T04:05:02;98400.94;;;14.14;100.00
9474;BME280;8865;47.636;7.692;2023-07-31T04:07:28;98409.69;;;14.15;100.00
9474;BME280;8865;47.636;7.692;2023-07-31T04:09:55;98415.78;;;14.15;100.00
9474;BME280;8865;47.636;7.692;2023-07-31T04:12:21;98415.78;;;14.15;100.00
9474;BME280;8865;47.636;7.692;2023-07-31T04:14:47;98434.34;;;14.14;100.00
9474;BME280;8865;47.636;7.692;2023-07-31T04:17:13;98417.75;;;14.13;100.00
9474;BME280;8865;47.636;7.692;2023-07-31T04:19:39;98419.38;;;14.14;100.00
9474;BME280;8865;47.636;7.692;2023-07-31T04:22:05;98421.19;;;14.14;100.00
9474;BME280;8865;47.636;7.692;2023-07-31T04:24:31;98420.66;;;14.10;100.00
9474;BME280;8865;47.636;7.692;2023-07-31T04:26:57;98425.63;;;14.13;100.00
9474;BME280;8865;47.636;7.692;2023-07-31T04:29:22;98419.06;;;14.17;100.00
9474;BME280;8865;47.636;7.692;2023-07-31T04:31:49;98406.91;;;14.16;100.00
9474;BME280;8865;47.636;7.692;2023-07-31T04:34:15;98407.25;;;14.21;100.00
9474;BME280;8865;47.636;7.692;2023-07-31T04:36:41;98404.16;;;14.26;100.00
9474;BME280;8865;47.636;7.692;2023-07-31T04:39:07;98407.84;;;14.33;100.00
9474;BME280;8865;47.636;7.692;2023-07-31T04:41:33;98410.19;;;14.36;100.00
9474;BME280;8865;47.636;7.692;2023-07-31T04:43:59;98416.63;;;14.42;100.00
9474;BME280;8865;47.636;7.692;2023-07-31T04:46:25;98414.38;;;14.47;100.00
9474;BME280;8865;47.636;7.692;2023-07-31T04:48:51;98420.16;;;14.51;100.00
9474;BME280;8865;47.636;7.692;2023-07-31T04:51:17;98414.59;;;14.54;100.00
9474;BME280;8865;47.636;7.692;2023-07-31T04:53:43;98419.41;;;14.58;100.00
9474;BME280;8865;47.636;7.692;2023-07-31T04:56:09;98414.53;;;14.63;100.00
9474;BME280;8865;47.636;7.692;2023-07-31T04:58:35;98416.84;;;14.67;100.00
9474;BME280;8865;47.636;7.692;2023-07-31T05:01:01;98408.78;;;14.68;100.00
9474;BME280;8865;47.636;7.692;2023-07-31T05:03:27;98419.88;;;14.72;100.00
9474;BME280;8865;47.636;7.692;2023-07-31T05:05:53;98416.75;;;14.76;100.00
9474;BME280;8865;47.636;7.692;2023-07-31T05:08:19;98415.31;;;14.82;100.00
9474;BME280;8865;47.636;7.692;2023-07-31T05:10:45;98412.06;;;14.88;100.00
9474;BME280;8865;47.636;7.692;2023-07-31T05:13:11;98421.84;;;14.96;100.00
9474;BME280;8865;47.636;7.692;2023-07-31T05:15:37;98419.53;;;15.01;100.00
9474;BME280;8865;47.636;7.692;2023-07-31T05:18:03;98424.34;;;15.06;100.00
9474;BME280;8865;47.636;7.692;2023-07-31T05:20:29;98423.72;;;15.12;100.00
9474;BME280;8865;47.636;7.692;2023-07-31T05:22:55;98429.50;;;15.15;100.00
9474;BME280;8865;47.636;7.692;2023-07-31T05:25:21;98423.09;;;15.18;100.00
9474;BME280;8865;47.636;7.692;2023-07-31T05:27:47;98426.94;;;15.24;100.00
9474;BME280;8865;47.636;7.692;2023-07-31T05:30:13;98412.72;;;15.25;100.00
9474;BME280;8865;47.636;7.692;2023-07-31T05:32:39;98419.16;;;15.22;100.00
9474;BME280;8865;47.636;7.692;2023-07-31T05:35:05;98418.84;;;15.25;100.00
9474;BME280;8865;47.636;7.692;2023-07-31T05:37:31;98414.56;;;15.32;100.00
9474;BME280;8865;47.636;7.692;2023-07-31T05:39:57;98412.13;;;15.39;100.00
9474;BME280;8865;47.636;7.692;2023-07-31T05:42:23;98404.41;;;15.46;100.00
9474;BME280;8865;47.636;7.692;2023-07-31T05:44:49;98400.16;;;15.53;100.00
9474;BME280;8865;47.636;7.692;2023-07-31T05:47:16;98412.06;;;15.65;100.00
9474;BME280;8865;47.636;7.692;2023-07-31T05:49:42;98420.81;;;15.74;100.00
9474;BME280;8865;47.636;7.692;2023-07-31T05:52:08;98414.25;;;15.78;100.00
9474;BME280;8865;47.636;7.692;2023-07-31T05:54:34;98404.53;;;15.87;100.00
9474;BME280;8865;47.636;7.692;2023-07-31T05:57:00;98408.84;;;15.96;100.00
9474;BME280;8865;47.636;7.692;2023-07-31T05:59:26;98392.34;;;16.02;100.00
9474;BME280;8865;47.636;7.692;2023-07-31T06:01:52;98394.00;;;16.12;100.00
9474;BME280;8865;47.636;7.692;2023-07-31T06:04:19;98387.09;;;16.19;100.00
9474;BME280;8865;47.636;7.692;2023-07-31T06:06:45;98389.22;;;16.23;100.00
9474;BME280;8865;47.636;7.692;2023-07-31T06:09:11;98387.06;;;16.27;100.00
9474;BME280;8865;47.636;7.692;2023-07-31T06:11:37;98382.28;;;16.31;100.00
9474;BME280;8865;47.636;7.692;2023-07-31T06:14:03;98392.19;;;16.45;100.00
9474;BME280;8865;47.636;7.692;2023-07-31T06:16:29;98390.84;;;16.57;100.00
9474;BME280;8865;47.636;7.692;2023-07-31T06:18:55;98388.00;;;16.75;100.00
9474;BME280;8865;47.636;7.692;2023-07-31T06:21:21;98380.56;;;16.95;100.00
9474;BME280;8865;47.636;7.692;2023-07-31T06:23:47;98380.31;;;17.13;100.00
9474;BME280;8865;47.636;7.692;2023-07-31T06:26:13;98367.06;;;17.22;100.00
9474;BME280;8865;47.636;7.692;2023-07-31T06:28:39;98362.19;;;17.34;100.00
9474;BME280;8865;47.636;7.692;2023-07-31T06:31:05;98351.06;;;17.46;100.00
9474;BME280;8865;47.636;7.692;2023-07-31T06:33:31;98340.88;;;17.58;100.00
9474;BME280;8865;47.636;7.692;2023-07-31T06:35:57;98335.22;;;17.61;100.00
9474;BME280;8865;47.636;7.692;2023-07-31T06:38:25;98336.59;;;17.57;100.00
9474;BME280;8865;47.636;7.692;2023-07-31T06:40:51;98340.69;;;17.60;100.00
9474;BME280;8865;47.636;7.692;2023-07-31T06:43:17;98336.19;;;17.68;100.00
9474;BME280;8865;47.636;7.692;2023-07-31T06:45:43;98331.66;;;17.77;100.00
9474;BME280;8865;47.636;7.692;2023-07-31T06:48:09;98338.88;;;17.92;100.00
9474;BME280;8865;47.636;7.692;2023-07-31T06:50:35;98326.38;;;18.00;100.00
9474;BME280;8865;47.636;7.692;2023-07-31T06:53:02;98340.41;;;18.09;100.00
9474;BME280;8865;47.636;7.692;2023-07-31T06:55:28;98338.50;;;18.18;100.00
9474;BME280;8865;47.636;7.692;2023-07-31T06:57:55;98340.25;;;18.26;100.00
9474;BME280;8865;47.636;7.692;2023-07-31T07:00:22;98340.63;;;18.37;100.00
9474;BME280;8865;47.636;7.692;2023-07-31T07:02:49;98345.03;;;18.45;100.00
9474;BME280;8865;47.636;7.692;2023-07-31T07:05:16;98335.81;;;18.56;100.00
9474;BME280;8865;47.636;7.692;2023-07-31T07:07:43;98343.78;;;18.71;100.00
9474;BME280;8865;47.636;7.692;2023-07-31T07:10:09;98351.28;;;18.82;100.00
9474;BME280;8865;47.636;7.692;2023-07-31T07:12:36;98347.16;;;18.80;100.00
9474;BME280;8865;47.636;7.692;2023-07-31T07:15:02;98357.41;;;18.83;100.00
9474;BME280;8865;47.636;7.692;2023-07-31T07:17:29;98357.75;;;18.88;100.00
9474;BME280;8865;47.636;7.692;2023-07-31T07:19:59;98359.84;;;18.92;100.00
9474;BME280;8865;47.636;7.692;2023-07-31T07:22:25;98345.34;;;19.10;100.00
9474;BME280;8865;47.636;7.692;2023-07-31T07:24:53;98341.06;;;19.45;100.00
9474;BME280;8865;47.636;7.692;2023-07-31T07:27:19;98338.19;;;19.77;100.00
9474;BME280;8865;47.636;7.692;2023-07-31T07:29:46;98329.38;;;20.20;100.00
9474;BME280;8865;47.636;7.692;2023-07-31T07:32:12;98319.91;;;20.45;100.00
9474;BME280;8865;47.636;7.692;2023-07-31T07:34:38;98320.34;;;20.77;100.00
9474;BME280;8865;47.636;7.692;2023-07-31T07:37:04;98327.91;;;21.09;100.00
9474;BME280;8865;47.636;7.692;2023-07-31T07:39:30;98318.31;;;21.28;100.00
9474;BME280;8865;47.636;7.692;2023-07-31T07:41:56;98323.25;;;21.24;100.00
9474;BME280;8865;47.636;7.692;2023-07-31T07:44:23;98310.09;;;21.16;100.00
9474;BME280;8865;47.636;7.692;2023-07-31T07:46:49;98307.47;;;21.29;100.00
9474;BME280;8865;47.636;7.692;2023-07-31T07:49:15;98302.00;;;21.44;100.00
9474;BME280;8865;47.636;7.692;2023-07-31T07:51:41;98295.06;;;21.63;100.00
9474;BME280;8865;47.636;7.692;2023-07-31T07:54:06;98289.97;;;21.88;100.00
9474;BME280;8865;47.636;7.692;2023-07-31T07:56:33;98288.97;;;22.16;100.00
9474;BME280;8865;47.636;7.692;2023-07-31T07:58:59;98288.94;;;22.23;100.00
9474;BME280;8865;47.636;7.692;2023-07-31T08:01:25;98294.28;;;22.23;100.00
9474;BME280;8865;47.636;7.692;2023-07-31T08:03:51;98298.59;;;22.10;100.00
9474;BME280;8865;47.636;7.692;2023-07-31T08:06:18;98300.66;;;22.15;100.00
9474;BME280;8865;47.636;7.692;2023-07-31T08:08:44;98295.31;;;22.28;100.00
9474;BME280;8865;47.636;7.692;2023-07-31T08:11:10;98294.47;;;22.28;100.00
9474;BME280;8865;47.636;7.692;2023-07-31T08:13:36;98298.41;;;22.39;100.00
9474;BME280;8865;47.636;7.692;2023-07-31T08:16:05;98290.59;;;22.44;100.00
9474;BME280;8865;47.636;7.692;2023-07-31T08:18:31;98291.81;;;22.41;100.00
9474;BME280;8865;47.636;7.692;2023-07-31T08:20:57;98291.22;;;22.39;99.09
9474;BME280;8865;47.636;7.692;2023-07-31T08:23:23;98283.81;;;22.48;99.23
9474;BME280;8865;47.636;7.692;2023-07-31T08:25:49;98281.13;;;22.48;100.00
9474;BME280;8865;47.636;7.692;2023-07-31T08:28:16;98277.69;;;22.41;97.93
9474;BME280;8865;47.636;7.692;2023-07-31T08:30:42;98274.59;;;22.37;100.00
9474;BME280;8865;47.636;7.692;2023-07-31T08:33:08;98269.88;;;22.33;100.00
9474;BME280;8865;47.636;7.692;2023-07-31T08:35:34;98270.09;;;22.38;100.00
9474;BME280;8865;47.636;7.692;2023-07-31T08:38:00;98267.56;;;22.50;100.00
9474;BME280;8865;47.636;7.692;2023-07-31T08:40:26;98274.47;;;22.77;100.00
9474;BME280;8865;47.636;7.692;2023-07-31T08:42:55;98271.94;;;23.09;100.00
9474;BME280;8865;47.636;7.692;2023-07-31T08:45:22;98271.44;;;23.26;89.94
9474;BME280;8865;47.636;7.692;2023-07-31T08:47:50;98272.34;;;23.45;87.61
9474;BME280;8865;47.636;7.692;2023-07-31T08:50:18;98264.59;;;23.68;84.40
9474;BME280;8865;47.636;7.692;2023-07-31T08:52:49;98264.16;;;24.22;93.01
9474;BME280;8865;47.636;7.692;2023-07-31T08:55:15;98274.31;;;24.38;88.98
9474;BME280;8865;47.636;7.692;2023-07-31T08:57:42;98264.13;;;24.29;85.09
9474;BME280;8865;47.636;7.692;2023-07-31T09:00:10;98263.31;;;24.28;87.79
9474;BME280;8865;47.636;7.692;2023-07-31T09:02:59;98259.22;;;24.44;88.42
9474;BME280;8865;47.636;7.692;2023-07-31T09:05:30;98250.56;;;24.67;75.98
9474;BME280;8865;47.636;7.692;2023-07-31T09:07:57;98258.34;;;24.50;77.04
9474;BME280;8865;47.636;7.692;2023-07-31T09:10:23;98254.88;;;24.24;77.49
9474;BME280;8865;47.636;7.692;2023-07-31T09:12:51;98248.38;;;24.39;75.05
9474;BME280;8865;47.636;7.692;2023-07-31T09:15:18;98246.44;;;24.65;81.85
9474;BME280;8865;47.636;7.692;2023-07-31T09:17:44;98230.53;;;24.88;72.25
9474;BME280;8865;47.636;7.692;2023-07-31T09:20:15;98227.19;;;25.05;68.60
9474;BME280;8865;47.636;7.692;2023-07-31T09:22:42;98230.41;;;25.13;66.87
9474;BME280;8865;47.636;7.692;2023-07-31T09:27:50;98233.72;;;24.41;65.61
9474;BME280;8865;47.636;7.692;2023-07-31T09:30:18;98233.16;;;24.58;66.21
9474;BME280;8865;47.636;7.692;2023-07-31T09:32:45;98226.78;;;24.34;66.32
9474;BME280;8865;47.636;7.692;2023-07-31T09:37:57;98220.41;;;25.21;66.70
9474;BME280;8865;47.636;7.692;2023-07-31T09:40:30;98214.19;;;25.39;65.79
9474;BME280;8865;47.636;7.692;2023-07-31T09:42:58;98218.22;;;25.95;63.15
9474;BME280;8865;47.636;7.692;2023-07-31T09:45:25;98218.44;;;26.53;60.30
9474;BME280;8865;47.636;7.692;2023-07-31T09:47:51;98206.91;;;26.93;54.01
9474;BME280;8865;47.636;7.692;2023-07-31T09:50:19;98196.88;;;26.88;53.53
9474;BME280;8865;47.636;7.692;2023-07-31T09:52:46;98190.97;;;26.63;54.11
9474;BME280;8865;47.636;7.692;2023-07-31T09:55:12;98188.53;;;26.61;53.33
9474;BME280;8865;47.636;7.692;2023-07-31T09:57:40;98188.66;;;26.95;57.19
9474;BME280;8865;47.636;7.692;2023-07-31T10:00:09;98177.47;;;27.15;56.71
9474;BME280;8865;47.636;7.692;2023-07-31T10:02:36;98170.03;;;27.34;53.32
9474;BME280;8865;47.636;7.692;2023-07-31T10:05:04;98160.97;;;27.74;53.19
9474;BME280;8865;47.636;7.692;2023-07-31T10:07:31;98159.00;;;28.04;53.48
9474;BME280;8865;47.636;7.692;2023-07-31T10:10:00;98172.72;;;28.02;50.41
9474;BME280;8865;47.636;7.692;2023-07-31T10:12:27;98160.25;;;27.79;48.56
9474;BME280;8865;47.636;7.692;2023-07-31T10:14:56;98154.16;;;27.21;49.47
9474;BME280;8865;47.636;7.692;2023-07-31T10:17:23;98149.88;;;27.88;52.90
9474;BME280;8865;47.636;7.692;2023-07-31T10:19:49;98144.22;;;28.06;51.04
9474;BME280;8865;47.636;7.692;2023-07-31T10:22:16;98141.16;;;28.20;49.03
9474;BME280;8865;47.636;7.692;2023-07-31T10:24:42;98158.94;;;28.21;49.62
9474;BME280;8865;47.636;7.692;2023-07-31T10:27:09;98153.44;;;27.25;48.42
9474;BME280;8865;47.636;7.692;2023-07-31T10:29:37;98152.63;;;26.38;50.70
9474;BME280;8865;47.636;7.692;2023-07-31T10:32:06;98141.34;;;27.74;52.79
9474;BME280;8865;47.636;7.692;2023-07-31T10:34:36;98150.28;;;28.85;48.33
9474;BME280;8865;47.636;7.692;2023-07-31T10:37:24;98136.72;;;30.09;45.62
9474;BME280;8865;47.636;7.692;2023-07-31T10:45:08;98112.09;;;31.93;40.48
9474;BME280;8865;47.636;7.692;2023-07-31T10:47:42;98117.84;;;31.60;40.60
9474;BME280;8865;47.636;7.692;2023-07-31T10:50:22;98137.31;;;30.27;40.38
9474;BME280;8865;47.636;7.692;2023-07-31T10:52:54;98131.81;;;30.01;42.81
9474;BME280;8865;47.636;7.692;2023-07-31T10:55:31;98131.78;;;29.21;44.51
9474;BME280;8865;47.636;7.692;2023-07-31T10:58:13;98122.06;;;28.65;44.17
9474;BME280;8865;47.636;7.692;2023-07-31T11:00:41;98127.22;;;29.21;44.31
9474;BME280;8865;47.636;7.692;2023-07-31T11:03:09;98106.75;;;29.68;44.84
9474;BME280;8865;47.636;7.692;2023-07-31T11:10:37;98098.25;;;33.97;38.88
9474;BME280;8865;47.636;7.692;2023-07-31T11:13:06;98082.63;;;35.69;35.75
9474;BME280;8865;47.636;7.692;2023-07-31T11:15:32;98081.47;;;36.03;33.84
9474;BME280;8865;47.636;7.692;2023-07-31T11:18:00;98074.38;;;36.30;32.93
9474;BME280;8865;47.636;7.692;2023-07-31T11:20:30;98071.75;;;36.11;32.87
9474;BME280;8865;47.636;7.692;2023-07-31T11:22:59;98084.22;;;35.43;33.62
9474;BME280;8865;47.636;7.692;2023-07-31T11:25:26;98073.31;;;35.10;32.50
9474;BME280;8865;47.636;7.692;2023-07-31T11:27:52;98076.38;;;34.70;34.71
9474;BME280;8865;47.636;7.692;2023-07-31T11:30:19;98065.78;;;34.06;35.03
9474;BME280;8865;47.636;7.692;2023-07-31T11:32:46;98062.69;;;33.94;35.58
9474;BME280;8865;47.636;7.692;2023-07-31T11:35:12;98062.63;;;33.99;35.09
9474;BME280;8865;47.636;7.692;2023-07-31T11:37:43;98070.72;;;33.80;35.42
9474;BME280;8865;47.636;7.692;2023-07-31T11:40:09;98059.94;;;34.80;34.85
9474;BME280;8865;47.636;7.692;2023-07-31T11:42:36;98054.91;;;34.87;33.96
9474;BME280;8865;47.636;7.692;2023-07-31T11:45:04;98055.44;;;34.08;34.48
9474;BME280;8865;47.636;7.692;2023-07-31T11:47:32;98056.09;;;33.46;36.52
9474;BME280;8865;47.636;7.692;2023-07-31T11:50:01;98050.94;;;33.98;36.62
9474;BME280;8865;47.636;7.692;2023-07-31T11:52:30;98039.81;;;35.28;32.14
9474;BME280;8865;47.636;7.692;2023-07-31T11:54:57;98032.59;;;36.66;30.18
9474;BME280;8865;47.636;7.692;2023-07-31T11:57:25;98028.75;;;37.35;28.42
9474;BME280;8865;47.636;7.692;2023-07-31T11:59:51;98027.38;;;36.92;29.20
9474;BME280;8865;47.636;7.692;2023-07-31T12:02:18;98023.09;;;37.00;32.47
9474;BME280;8865;47.636;7.692;2023-07-31T12:04:45;98033.56;;;38.18;30.44
9474;BME280;8865;47.636;7.692;2023-07-31T12:07:12;98024.44;;;37.83;28.72
9474;BME280;8865;47.636;7.692;2023-07-31T12:09:38;98027.22;;;35.60;29.40
9474;BME280;8865;47.636;7.692;2023-07-31T12:12:08;98014.00;;;35.53;30.23
9474;BME280;8865;47.636;7.692;2023-07-31T12:14:34;98015.22;;;35.75;33.17
9474;BME280;8865;47.636;7.692;2023-07-31T12:17:04;97997.16;;;36.43;33.28
9474;BME280;8865;47.636;7.692;2023-07-31T12:19:30;97992.06;;;36.28;31.04
9474;BME280;8865;47.636;7.692;2023-07-31T12:21:56;97994.25;;;35.89;32.09
9474;BME280;8865;47.636;7.692;2023-07-31T12:24:22;97992.53;;;35.80;32.37
9474;BME280;8865;47.636;7.692;2023-07-31T12:26:49;97988.88;;;35.29;31.00
9474;BME280;8865;47.636;7.692;2023-07-31T12:29:15;97989.34;;;35.17;33.45
9474;BME280;8865;47.636;7.692;2023-07-31T12:31:41;97990.28;;;35.68;31.83
9474;BME280;8865;47.636;7.692;2023-07-31T12:34:17;97982.72;;;36.88;30.35
9474;BME280;8865;47.636;7.692;2023-07-31T12:36:44;97987.53;;;37.54;29.63
9474;BME280;8865;47.636;7.692;2023-07-31T12:39:10;97983.88;;;36.73;29.31
9474;BME280;8865;47.636;7.692;2023-07-31T12:41:36;97977.38;;;35.46;31.80
9474;BME280;8865;47.636;7.692;2023-07-31T12:44:02;97962.91;;;34.70;31.22
9474;BME280;8865;47.636;7.692;2023-07-31T12:46:29;97963.44;;;35.75;30.10
9474;BME280;8865;47.636;7.692;2023-07-31T12:48:55;97970.91;;;35.55;31.33
9474;BME280;8865;47.636;7.692;2023-07-31T12:51:21;97963.91;;;34.94;32.10
9474;BME280;8865;47.636;7.692;2023-07-31T12:53:47;97952.09;;;34.84;32.70
9474;BME280;8865;47.636;7.692;2023-07-31T12:56:13;97954.22;;;34.87;30.67
9474;BME280;8865;47.636;7.692;2023-07-31T12:58:39;97945.19;;;36.49;29.83
9474;BME280;8865;47.636;7.692;2023-07-31T13:01:05;97942.31;;;37.39;27.93
9474;BME280;8865;47.636;7.692;2023-07-31T13:03:32;97937.47;;;38.29;28.95
9474;BME280;8865;47.636;7.692;2023-07-31T13:05:58;97932.53;;;39.04;29.11
9474;BME280;8865;47.636;7.692;2023-07-31T13:08:24;97921.63;;;38.87;27.37
9474;BME280;8865;47.636;7.692;2023-07-31T13:10:50;97918.63;;;38.71;28.33
9474;BME280;8865;47.636;7.692;2023-07-31T13:13:16;97927.31;;;38.55;28.27
9474;BME280;8865;47.636;7.692;2023-07-31T13:15:43;97929.47;;;37.40;29.11
9474;BME280;8865;47.636;7.692;2023-07-31T13:18:09;97925.63;;;36.46;29.83
9474;BME280;8865;47.636;7.692;2023-07-31T13:20:35;97917.22;;;36.65;30.59
9474;BME280;8865;47.636;7.692;2023-07-31T13:23:01;97921.34;;;36.86;30.10
9474;BME280;8865;47.636;7.692;2023-07-31T13:25:27;97914.22;;;37.56;28.54
9474;BME280;8865;47.636;7.692;2023-07-31T13:27:55;97915.44;;;37.99;27.71
9474;BME280;8865;47.636;7.692;2023-07-31T13:30:21;97907.22;;;38.16;28.67